createdAt,value
2023-01-27T00:00:07.757Z,-1.16
2023-01-27T00:00:34.535Z,-1.16
2023-01-27T00:00:53.724Z,-1.16
2023-01-27T00:01:25.319Z,-1.16
2023-01-27T00:01:42.424Z,-1.16
2023-01-27T00:02:13.176Z,-1.16
2023-01-27T00:02:37.541Z,-1.16
2023-01-27T00:03:01.215Z,-1.16
2023-01-27T00:03:34.136Z,-1.16
2023-01-27T00:04:05.663Z,-1.16
2023-01-27T00:04:37.206Z,-1.16
2023-01-27T00:05:10.277Z,-1.16
2023-01-27T00:05:35.036Z,-1.16
2023-01-27T00:05:57.508Z,-1.16
2023-01-27T00:06:29.206Z,-1.16
2023-01-27T00:07:01.220Z,-1.16
2023-01-27T00:07:33.176Z,-1.16
2023-01-27T00:08:05.704Z,-1.16
2023-01-27T00:08:37.182Z,-1.11
2023-01-27T00:09:09.173Z,-1.11
2023-01-27T00:09:35.896Z,-1.11
2023-01-27T00:09:58.277Z,-1.11
2023-01-27T00:10:29.575Z,-1.11
2023-01-27T00:11:01.263Z,-1.11
2023-01-27T00:11:33.597Z,-1.11
2023-01-27T00:12:05.671Z,-1.11
2023-01-27T00:12:37.216Z,-1.00
2023-01-27T00:13:09.908Z,-1.00
2023-01-27T00:13:35.893Z,-1.00
2023-01-27T00:13:57.236Z,-1.00
2023-01-27T00:14:29.215Z,-1.00
2023-01-27T00:15:03.502Z,-1.00
2023-01-27T00:15:33.388Z,-1.00
2023-01-27T00:16:05.857Z,-1.00
2023-01-27T00:16:37.201Z,-1.00
2023-01-27T00:17:09.183Z,-1.00
2023-01-27T00:17:35.923Z,-1.00
2023-01-27T00:17:57.644Z,-1.11
2023-01-27T00:18:29.261Z,-1.11
2023-01-27T00:19:01.272Z,-1.11
2023-01-27T00:19:33.915Z,-1.11
2023-01-27T00:20:07.470Z,-1.11
2023-01-27T00:20:37.226Z,-1.11
2023-01-27T00:21:09.243Z,-1.11
2023-01-27T00:21:35.979Z,-1.11
2023-01-27T00:21:57.196Z,-1.11
2023-01-27T00:22:29.232Z,-1.11
2023-01-27T00:23:01.217Z,-1.11
2023-01-27T00:23:33.223Z,-1.11
2023-01-27T00:24:05.269Z,-1.11
2023-01-27T00:24:37.198Z,-1.11
2023-01-27T00:25:09.488Z,-1.11
2023-01-27T00:25:35.910Z,-1.11
2023-01-27T00:25:58.671Z,-1.11
2023-01-27T00:26:29.225Z,-1.11
2023-01-27T00:27:01.242Z,-1.11
2023-01-27T00:27:35.150Z,-1.11
2023-01-27T00:28:05.275Z,-1.00
2023-01-27T00:28:37.226Z,-1.00
2023-01-27T00:29:10.028Z,-1.00
2023-01-27T00:29:35.988Z,-1.00
2023-01-27T00:29:57.196Z,-1.00
2023-01-27T00:30:29.848Z,-1.00
2023-01-27T00:31:01.324Z,-1.00
2023-01-27T00:31:33.298Z,-1.00
2023-01-27T00:32:05.227Z,-1.00
2023-01-27T00:32:37.193Z,-1.00
2023-01-27T00:33:09.328Z,-1.00
2023-01-27T00:33:35.975Z,-1.00
2023-01-27T00:33:57.217Z,-1.00
2023-01-27T00:34:29.308Z,-1.00
2023-01-27T00:35:03.129Z,-1.00
2023-01-27T00:35:34.473Z,-1.00
2023-01-27T00:36:05.312Z,-1.00
2023-01-27T00:36:37.224Z,-1.00
2023-01-27T00:37:09.196Z,-1.00
2023-01-27T00:37:35.990Z,-1.00
2023-01-27T00:37:57.727Z,-1.00
2023-01-27T00:38:29.221Z,-1.00
2023-01-27T00:39:01.407Z,-1.00
2023-01-27T00:39:33.204Z,-1.00
2023-01-27T00:40:07.625Z,-1.00
2023-01-27T00:40:37.196Z,-1.00
2023-01-27T00:41:09.493Z,-1.00
2023-01-27T00:41:36.069Z,-1.00
2023-01-27T00:41:58.157Z,-1.00
2023-01-27T00:42:29.307Z,-1.00
2023-01-27T00:43:01.233Z,-.89
2023-01-27T00:43:33.188Z,-.89
2023-01-27T00:44:05.302Z,-.89
2023-01-27T00:44:37.222Z,-.89
2023-01-27T00:45:11.618Z,-.89
2023-01-27T00:45:36.113Z,-.77
2023-01-27T00:45:57.486Z,-.77
2023-01-27T00:46:29.353Z,-.77
2023-01-27T00:47:01.311Z,-.77
2023-01-27T00:47:33.508Z,-.77
2023-01-27T00:48:05.222Z,-.77
2023-01-27T00:48:37.318Z,-.89
2023-01-27T00:49:09.202Z,-.89
2023-01-27T00:49:35.875Z,-.89
2023-01-27T00:49:57.636Z,-.89
2023-01-27T00:50:29.621Z,-.89
2023-01-27T00:51:01.245Z,-.89
2023-01-27T00:51:34.419Z,-.89
2023-01-27T00:52:05.212Z,-.89
2023-01-27T00:52:37.232Z,-.89
2023-01-27T00:53:09.220Z,-.89
2023-01-27T00:53:35.849Z,-.89
2023-01-27T00:53:57.235Z,-.89
2023-01-27T00:54:29.206Z,-.89
2023-01-27T00:55:03.043Z,-.89
2023-01-27T00:55:33.197Z,-.89
2023-01-27T00:56:05.227Z,-.89
2023-01-27T00:56:37.229Z,-.89
2023-01-27T00:57:09.203Z,-.89
2023-01-27T00:57:35.894Z,-.89
2023-01-27T00:57:57.970Z,-.89
2023-01-27T00:58:29.290Z,-.89
2023-01-27T00:59:17.243Z,-.89
2023-01-27T00:59:38.946Z,-.89
2023-01-27T01:00:08.071Z,-.89
2023-01-27T01:00:37.208Z,-.89
2023-01-27T01:01:10.087Z,-.89
2023-01-27T01:01:35.948Z,-.89
2023-01-27T01:01:57.596Z,-.89
2023-01-27T01:02:29.317Z,-.89
2023-01-27T01:03:01.259Z,-.89
2023-01-27T01:03:33.238Z,-.89
2023-01-27T01:04:05.249Z,-.89
2023-01-27T01:04:37.216Z,-.89
2023-01-27T01:05:09.526Z,-.89
2023-01-27T01:05:35.918Z,-.89
2023-01-27T01:05:57.488Z,-.77
2023-01-27T01:06:29.291Z,-.77
2023-01-27T01:07:01.246Z,-.77
2023-01-27T01:07:36.304Z,-.77
2023-01-27T01:08:05.255Z,-.77
2023-01-27T01:08:37.275Z,-.77
2023-01-27T01:09:09.214Z,-.77
2023-01-27T01:09:36.216Z,-.89
2023-01-27T01:09:57.235Z,-.89
2023-01-27T01:10:29.601Z,-.89
2023-01-27T01:11:01.257Z,-.89
2023-01-27T01:11:33.215Z,-.89
2023-01-27T01:12:05.277Z,-.89
2023-01-27T01:12:37.216Z,-1.00
2023-01-27T01:13:09.214Z,-1.00
2023-01-27T01:13:35.937Z,-1.00
2023-01-27T01:13:58.573Z,-1.00
2023-01-27T01:14:29.319Z,-1.00
2023-01-27T01:15:03.557Z,-1.00
2023-01-27T01:15:33.542Z,-1.00
2023-01-27T01:16:05.900Z,-1.00
2023-01-27T01:16:37.268Z,-1.00
2023-01-27T01:17:11.096Z,-1.00
2023-01-27T01:17:35.943Z,-1.00
2023-01-27T01:17:57.244Z,-.89
2023-01-27T01:18:29.247Z,-.89
2023-01-27T01:19:01.280Z,-.89
2023-01-27T01:19:33.237Z,-.89
2023-01-27T01:20:07.806Z,-.89
2023-01-27T01:20:37.236Z,-.89
2023-01-27T01:21:09.248Z,-.89
2023-01-27T01:21:35.936Z,-.89
2023-01-27T01:21:57.953Z,-.89
2023-01-27T01:22:29.322Z,-.89
2023-01-27T01:23:01.272Z,-.89
2023-01-27T01:23:34.422Z,-.89
2023-01-27T01:24:05.331Z,-.89
2023-01-27T01:24:37.253Z,-.89
2023-01-27T01:25:09.980Z,-.89
2023-01-27T01:25:36.048Z,-.89
2023-01-27T01:25:57.491Z,-.89
2023-01-27T01:26:29.266Z,-.89
2023-01-27T01:27:01.271Z,-.89
2023-01-27T01:27:33.258Z,-.89
2023-01-27T01:28:05.253Z,-.89
2023-01-27T01:28:37.251Z,-.89
2023-01-27T01:29:09.260Z,-.89
2023-01-27T01:29:35.879Z,-.89
2023-01-27T01:29:58.009Z,-.89
2023-01-27T01:30:29.842Z,-.89
2023-01-27T01:31:01.403Z,-.89
2023-01-27T01:31:33.491Z,-.89
2023-01-27T01:32:05.299Z,-.89
2023-01-27T01:32:37.221Z,-.89
2023-01-27T01:33:10.267Z,-.89
2023-01-27T01:33:35.859Z,-.89
2023-01-27T01:33:57.237Z,-.89
2023-01-27T01:34:29.259Z,-.89
2023-01-27T01:35:03.209Z,-.89
2023-01-27T01:35:33.530Z,-.89
2023-01-27T01:36:05.263Z,-.89
2023-01-27T01:36:37.224Z,-1.00
2023-01-27T01:37:09.208Z,-1.00
2023-01-27T01:37:35.858Z,-1.00
2023-01-27T01:37:57.371Z,-1.00
2023-01-27T01:38:29.288Z,-1.00
2023-01-27T01:39:01.268Z,-1.00
2023-01-27T01:39:34.070Z,-1.00
2023-01-27T01:40:07.512Z,-.89
2023-01-27T01:40:37.301Z,-.89
2023-01-27T01:41:09.439Z,-.89
2023-01-27T01:41:36.317Z,-.89
2023-01-27T01:41:57.270Z,-.89
2023-01-27T01:42:29.323Z,-1.00
2023-01-27T01:43:01.302Z,-1.00
2023-01-27T01:43:33.687Z,-1.00
2023-01-27T01:44:05.527Z,-1.00
2023-01-27T01:44:37.318Z,-1.00
2023-01-27T01:45:14.926Z,-1.00
2023-01-27T01:45:36.033Z,-1.00
2023-01-27T01:45:59.175Z,-1.00
2023-01-27T01:46:30.199Z,-1.00
2023-01-27T01:47:01.309Z,-1.00
2023-01-27T01:47:33.413Z,-1.00
2023-01-27T01:48:05.522Z,-1.00
2023-01-27T01:48:37.494Z,-1.00
2023-01-27T01:49:10.211Z,-1.00
2023-01-27T01:49:36.137Z,-1.00
2023-01-27T01:49:57.763Z,-1.00
2023-01-27T01:50:29.794Z,-1.00
2023-01-27T01:51:01.584Z,-1.00
2023-01-27T01:51:33.461Z,-1.00
2023-01-27T01:52:05.458Z,-.89
2023-01-27T01:52:37.825Z,-.89
2023-01-27T01:53:09.250Z,-.89
2023-01-27T01:53:36.852Z,-.89
2023-01-27T01:53:57.866Z,-.89
2023-01-27T01:54:29.837Z,-.89
2023-01-27T01:55:01.762Z,-.89
2023-01-27T01:55:34.405Z,-.89
2023-01-27T01:56:05.268Z,-.89
2023-01-27T01:56:37.325Z,-.89
2023-01-27T01:57:09.348Z,-.89
2023-01-27T01:57:35.962Z,-.89
2023-01-27T01:57:57.322Z,-.89
2023-01-27T01:58:29.363Z,-.89
2023-01-27T01:59:17.366Z,-.89
2023-01-27T01:59:39.027Z,-.89
2023-01-27T02:00:08.620Z,-.89
2023-01-27T02:00:37.313Z,-.89
2023-01-27T02:01:09.772Z,-.89
2023-01-27T02:01:35.818Z,-.89
2023-01-27T02:01:58.655Z,-.89
2023-01-27T02:02:29.385Z,-.89
2023-01-27T02:03:01.349Z,-.89
2023-01-27T02:03:33.342Z,-.89
2023-01-27T02:04:05.448Z,-.89
2023-01-27T02:04:37.308Z,-.89
2023-01-27T02:05:10.961Z,-.89
2023-01-27T02:05:35.881Z,-.89
2023-01-27T02:05:57.565Z,-.89
2023-01-27T02:06:29.341Z,-.89
2023-01-27T02:07:01.292Z,-.89
2023-01-27T02:07:33.272Z,-.89
2023-01-27T02:08:05.320Z,-.89
2023-01-27T02:08:37.288Z,-1.00
2023-01-27T02:09:09.315Z,-1.00
2023-01-27T02:09:36.336Z,-1.00
2023-01-27T02:09:57.349Z,-1.00
2023-01-27T02:10:29.662Z,-1.00
2023-01-27T02:11:01.365Z,-1.00
2023-01-27T02:11:34.157Z,-1.00
2023-01-27T02:12:05.320Z,-1.00
2023-01-27T02:12:37.312Z,-1.00
2023-01-27T02:13:09.278Z,-1.00
2023-01-27T02:13:35.508Z,-1.00
2023-01-27T02:13:57.291Z,-1.00
2023-01-27T02:14:29.404Z,-1.00
2023-01-27T02:15:03.770Z,-.89
2023-01-27T02:15:33.300Z,-.89
2023-01-27T02:16:05.469Z,-.89
2023-01-27T02:16:37.341Z,-.89
2023-01-27T02:17:09.279Z,-.89
2023-01-27T02:17:35.514Z,-.89
2023-01-27T02:17:58.187Z,-1.00
2023-01-27T02:18:29.365Z,-1.00
2023-01-27T02:19:01.457Z,-1.00
2023-01-27T02:19:33.331Z,-1.00
2023-01-27T02:20:07.867Z,-.89
2023-01-27T02:20:37.307Z,-.89
2023-01-27T02:21:10.114Z,-.89
2023-01-27T02:21:35.503Z,-.89
2023-01-27T02:21:57.363Z,-.89
2023-01-27T02:22:29.341Z,-.89
2023-01-27T02:23:01.334Z,-.89
2023-01-27T02:23:33.281Z,-.89
2023-01-27T02:24:05.466Z,-.89
2023-01-27T02:24:37.305Z,-.89
2023-01-27T02:25:09.961Z,-.89
2023-01-27T02:25:35.476Z,-.89
2023-01-27T02:25:57.578Z,-.89
2023-01-27T02:26:29.364Z,-.89
2023-01-27T02:27:01.323Z,-.89
2023-01-27T02:27:34.382Z,-.89
2023-01-27T02:28:05.295Z,-.89
2023-01-27T02:28:37.366Z,-.89
2023-01-27T02:29:09.328Z,-.89
2023-01-27T02:29:35.493Z,-.89
2023-01-27T02:29:57.309Z,-.89
2023-01-27T02:30:30.079Z,-.89
2023-01-27T02:31:01.490Z,-.89
2023-01-27T02:31:33.418Z,-.89
2023-01-27T02:32:05.298Z,-.89
2023-01-27T02:32:39.263Z,-.89
2023-01-27T02:33:10.016Z,-.89
2023-01-27T02:33:35.476Z,-.76
2023-01-27T02:33:58.048Z,-.76
2023-01-27T02:34:29.334Z,-.89
2023-01-27T02:35:03.463Z,-.76
2023-01-27T02:35:33.672Z,-.76
2023-01-27T02:36:05.319Z,-.76
2023-01-27T02:36:37.322Z,-.76
2023-01-27T02:37:10.051Z,-.76
2023-01-27T02:37:35.481Z,-.89
2023-01-27T02:37:57.296Z,-.76
2023-01-27T02:38:29.341Z,-.76
2023-01-27T02:39:01.291Z,-.76
2023-01-27T02:39:33.272Z,-.64
2023-01-27T02:40:08.038Z,-.64
2023-01-27T02:40:37.270Z,-.76
2023-01-27T02:41:09.254Z,-.76
2023-01-27T02:41:35.426Z,-.76
2023-01-27T02:41:57.303Z,-.76
2023-01-27T02:42:29.311Z,-.76
2023-01-27T02:43:01.264Z,-.76
2023-01-27T02:43:34.304Z,-.76
2023-01-27T02:44:05.291Z,-.76
2023-01-27T02:44:37.283Z,-.76
2023-01-27T02:45:10.608Z,-.76
2023-01-27T02:45:36.014Z,-.76
2023-01-27T02:45:57.860Z,-.64
2023-01-27T02:46:29.331Z,-.64
2023-01-27T02:47:01.331Z,-.64
2023-01-27T02:47:33.279Z,-.64
2023-01-27T02:48:05.269Z,-.64
2023-01-27T02:48:37.267Z,-.64
2023-01-27T02:49:09.275Z,-.64
2023-01-27T02:49:35.420Z,-.64
2023-01-27T02:49:58.133Z,-.64
2023-01-27T02:50:29.660Z,-.64
2023-01-27T02:51:01.307Z,-.64
2023-01-27T02:51:33.283Z,-.64
2023-01-27T02:52:05.332Z,-.64
2023-01-27T02:52:37.299Z,-.64
2023-01-27T02:53:11.908Z,-.64
2023-01-27T02:53:36.155Z,-.64
2023-01-27T02:53:57.274Z,-.64
2023-01-27T02:54:29.270Z,-.64
2023-01-27T02:55:03.179Z,-.64
2023-01-27T02:55:33.310Z,-.64
2023-01-27T02:56:05.278Z,-.64
2023-01-27T02:56:37.490Z,-.64
2023-01-27T02:57:09.464Z,-.64
2023-01-27T02:57:35.413Z,-.64
2023-01-27T02:57:57.300Z,-.64
2023-01-27T02:58:29.377Z,-.64
2023-01-27T02:59:17.311Z,-.64
2023-01-27T02:59:38.944Z,-.64
2023-01-27T03:00:07.943Z,-.64
2023-01-27T03:00:37.421Z,-.64
2023-01-27T03:01:09.350Z,-.64
2023-01-27T03:01:35.465Z,-.64
2023-01-27T03:01:57.273Z,-.64
2023-01-27T03:02:29.368Z,-.64
2023-01-27T03:03:01.285Z,-.64
2023-01-27T03:03:33.298Z,-.64
2023-01-27T03:04:05.282Z,-.64
2023-01-27T03:04:37.265Z,-.64
2023-01-27T03:05:09.628Z,-.64
2023-01-27T03:05:35.533Z,-.64
2023-01-27T03:05:57.578Z,-.64
2023-01-27T03:06:29.275Z,-.64
2023-01-27T03:07:01.326Z,-.64
2023-01-27T03:07:34.133Z,-.64
2023-01-27T03:08:05.302Z,-.64
2023-01-27T03:08:38.004Z,-.64
2023-01-27T03:09:09.309Z,-.64
2023-01-27T03:09:36.332Z,-.64
2023-01-27T03:09:57.335Z,-.64
2023-01-27T03:10:29.534Z,-.64
2023-01-27T03:11:01.303Z,-.64
2023-01-27T03:11:33.273Z,-.64
2023-01-27T03:12:05.263Z,-.64
2023-01-27T03:12:37.300Z,-.64
2023-01-27T03:13:09.279Z,-.64
2023-01-27T03:13:35.396Z,-.64
2023-01-27T03:13:57.806Z,-.64
2023-01-27T03:14:29.315Z,-.64
2023-01-27T03:15:03.709Z,-.64
2023-01-27T03:15:33.417Z,-.64
2023-01-27T03:16:05.675Z,-.64
2023-01-27T03:16:37.318Z,-.64
2023-01-27T03:17:09.985Z,-.64
2023-01-27T03:17:35.677Z,-.64
2023-01-27T03:17:57.319Z,-.64
2023-01-27T03:18:29.286Z,-.64
2023-01-27T03:19:01.304Z,-.64
2023-01-27T03:19:33.299Z,-.64
2023-01-27T03:20:08.130Z,-.64
2023-01-27T03:20:37.297Z,-.64
2023-01-27T03:21:09.277Z,-.64
2023-01-27T03:21:35.394Z,-.64
2023-01-27T03:21:57.816Z,-.64
2023-01-27T03:22:29.310Z,-.77
2023-01-27T03:23:01.374Z,-.64
2023-01-27T03:23:33.284Z,-.64
2023-01-27T03:24:05.376Z,-.77
2023-01-27T03:24:39.640Z,-.77
2023-01-27T03:25:09.628Z,-.77
2023-01-27T03:25:35.391Z,-.77
2023-01-27T03:25:57.534Z,-.77
2023-01-27T03:26:29.307Z,-.77
2023-01-27T03:27:01.345Z,-.77
2023-01-27T03:27:34.098Z,-.77
2023-01-27T03:28:05.305Z,-.77
2023-01-27T03:28:37.289Z,-.77
2023-01-27T03:29:09.289Z,-.77
2023-01-27T03:29:35.405Z,-.77
2023-01-27T03:29:57.286Z,-.77
2023-01-27T03:30:29.893Z,-.77
2023-01-27T03:31:02.189Z,-.77
2023-01-27T03:31:33.824Z,-.77
2023-01-27T03:32:05.294Z,-.77
2023-01-27T03:32:37.330Z,-.77
2023-01-27T03:33:09.484Z,-.77
2023-01-27T03:33:35.396Z,-.77
2023-01-27T03:33:57.811Z,-.77
2023-01-27T03:34:29.301Z,-.77
2023-01-27T03:35:03.289Z,-.77
2023-01-27T03:35:33.314Z,-.77
2023-01-27T03:36:05.303Z,-.77
2023-01-27T03:36:37.307Z,-.77
2023-01-27T03:37:09.293Z,-.77
2023-01-27T03:37:35.400Z,-.77
2023-01-27T03:37:57.653Z,-.77
2023-01-27T03:38:29.301Z,-.77
2023-01-27T03:39:01.359Z,-.77
2023-01-27T03:39:33.570Z,-.77
2023-01-27T03:40:07.600Z,-.77
2023-01-27T03:40:38.158Z,-.77
2023-01-27T03:41:09.313Z,-.77
2023-01-27T03:41:35.384Z,-.77
2023-01-27T03:41:57.363Z,-.77
2023-01-27T03:42:29.258Z,-.77
2023-01-27T03:43:01.312Z,-.77
2023-01-27T03:43:33.642Z,-.77
2023-01-27T03:44:05.307Z,-.77
2023-01-27T03:44:37.305Z,-.77
2023-01-27T03:45:10.061Z,-.77
2023-01-27T03:45:35.431Z,-.77
2023-01-27T03:45:57.701Z,-.77
2023-01-27T03:46:29.391Z,-.67
2023-01-27T03:47:03.017Z,-.67
2023-01-27T03:47:33.350Z,-.67
2023-01-27T03:48:05.334Z,-.67
2023-01-27T03:48:37.588Z,-.67
2023-01-27T03:49:09.306Z,-.67
2023-01-27T03:49:35.505Z,-.67
2023-01-27T03:49:57.319Z,-.67
2023-01-27T03:50:29.531Z,-.67
2023-01-27T03:51:01.329Z,-.67
2023-01-27T03:51:33.297Z,-.67
2023-01-27T03:52:05.307Z,-.67
2023-01-27T03:52:37.323Z,-.67
2023-01-27T03:53:09.313Z,-.67
2023-01-27T03:53:35.382Z,-.67
2023-01-27T03:53:57.384Z,-.67
2023-01-27T03:54:29.318Z,-.67
2023-01-27T03:55:03.284Z,-.67
2023-01-27T03:55:33.347Z,-.67
2023-01-27T03:56:05.345Z,-.67
2023-01-27T03:56:38.296Z,-.67
2023-01-27T03:57:09.355Z,-.67
2023-01-27T03:57:35.400Z,-.67
2023-01-27T03:57:57.335Z,-.67
2023-01-27T03:58:29.297Z,-.67
2023-01-27T03:59:17.361Z,-.67
2023-01-27T03:59:38.963Z,-.67
2023-01-27T04:00:07.927Z,-.67
2023-01-27T04:00:37.357Z,-.67
2023-01-27T04:01:09.373Z,-.67
2023-01-27T04:01:35.449Z,-.67
2023-01-27T04:01:57.325Z,-.67
2023-01-27T04:02:29.438Z,-.67
2023-01-27T04:03:01.505Z,-.67
2023-01-27T04:03:33.449Z,-.67
2023-01-27T04:04:06.694Z,-.67
2023-01-27T04:04:37.333Z,-.67
2023-01-27T04:05:09.655Z,-.67
2023-01-27T04:05:35.389Z,-.67
2023-01-27T04:05:58.196Z,-.67
2023-01-27T04:06:29.320Z,-.67
2023-01-27T04:07:01.314Z,-.67
2023-01-27T04:07:33.343Z,-.67
2023-01-27T04:08:05.377Z,-.67
2023-01-27T04:08:38.025Z,-.67
2023-01-27T04:09:09.636Z,-.67
2023-01-27T04:09:35.516Z,-.67
2023-01-27T04:09:57.387Z,-.67
2023-01-27T04:10:29.642Z,-.67
2023-01-27T04:11:01.395Z,-.67
2023-01-27T04:11:33.357Z,-.67
2023-01-27T04:12:05.397Z,-.67
2023-01-27T04:12:37.322Z,-.67
2023-01-27T04:13:09.347Z,-.67
2023-01-27T04:13:35.374Z,-.67
2023-01-27T04:13:57.353Z,-.67
2023-01-27T04:14:29.335Z,-.67
2023-01-27T04:15:03.589Z,-.67
2023-01-27T04:15:33.367Z,-.67
2023-01-27T04:16:05.605Z,-.67
2023-01-27T04:16:37.321Z,-.67
2023-01-27T04:17:09.335Z,-.67
2023-01-27T04:17:35.381Z,-.67
2023-01-27T04:17:57.382Z,-.67
2023-01-27T04:18:29.355Z,-.67
2023-01-27T04:19:01.347Z,-.67
2023-01-27T04:19:33.713Z,-.67
2023-01-27T04:20:07.800Z,-.67
2023-01-27T04:20:37.386Z,-.67
2023-01-27T04:21:09.907Z,-.67
2023-01-27T04:21:35.402Z,-.67
2023-01-27T04:21:57.364Z,-.67
2023-01-27T04:22:29.360Z,-.67
2023-01-27T04:23:01.355Z,-.67
2023-01-27T04:23:33.783Z,-.67
2023-01-27T04:24:05.508Z,-.67
2023-01-27T04:24:38.908Z,-.81
2023-01-27T04:25:12.981Z,-.81
2023-01-27T04:25:35.412Z,-.81
2023-01-27T04:25:57.625Z,-.81
2023-01-27T04:26:29.377Z,-.81
2023-01-27T04:27:01.488Z,-.81
2023-01-27T04:27:33.376Z,-.76
2023-01-27T04:28:05.362Z,-.76
2023-01-27T04:28:44.362Z,-.76
2023-01-27T04:29:09.393Z,-.76
2023-01-27T04:29:35.385Z,-.76
2023-01-27T04:29:57.675Z,-.76
2023-01-27T04:30:30.032Z,-.76
2023-01-27T04:31:02.329Z,-.76
2023-01-27T04:31:33.395Z,-.76
2023-01-27T04:32:05.348Z,-.76
2023-01-27T04:32:37.311Z,-.76
2023-01-27T04:33:09.395Z,-.76
2023-01-27T04:33:35.375Z,-.76
2023-01-27T04:33:57.357Z,-.76
2023-01-27T04:34:30.528Z,-.76
2023-01-27T04:35:03.207Z,-.76
2023-01-27T04:35:38.573Z,-.76
2023-01-27T04:36:05.453Z,-.76
2023-01-27T04:36:37.374Z,-.76
2023-01-27T04:37:09.797Z,-.76
2023-01-27T04:37:36.927Z,-.76
2023-01-27T04:37:57.864Z,-.76
2023-01-27T04:38:29.366Z,-.76
2023-01-27T04:39:01.368Z,-.76
2023-01-27T04:39:33.352Z,-.76
2023-01-27T04:40:07.879Z,-.76
2023-01-27T04:40:42.904Z,-.76
2023-01-27T04:41:09.410Z,-.76
2023-01-27T04:41:35.385Z,-.76
2023-01-27T04:41:57.400Z,-.76
2023-01-27T04:42:29.383Z,-.76
2023-01-27T04:43:01.413Z,-.76
2023-01-27T04:43:33.391Z,-.76
2023-01-27T04:44:05.389Z,-.76
2023-01-27T04:44:37.352Z,-.76
2023-01-27T04:45:09.982Z,-.76
2023-01-27T04:45:35.471Z,-.76
2023-01-27T04:45:57.759Z,-.76
2023-01-27T04:46:29.361Z,-.76
2023-01-27T04:47:02.999Z,-.76
2023-01-27T04:47:33.386Z,-.76
2023-01-27T04:48:05.361Z,-.76
2023-01-27T04:48:37.363Z,-.76
2023-01-27T04:49:09.425Z,-.76
2023-01-27T04:49:35.370Z,-.76
2023-01-27T04:49:58.014Z,-.76
2023-01-27T04:50:29.701Z,-.76
2023-01-27T04:51:01.399Z,-.76
2023-01-27T04:51:33.407Z,-.76
2023-01-27T04:52:05.374Z,-.76
2023-01-27T04:52:37.399Z,-.76
2023-01-27T04:53:09.402Z,-.76
2023-01-27T04:53:35.481Z,-.76
2023-01-27T04:53:57.581Z,-.76
2023-01-27T04:54:29.406Z,-.76
2023-01-27T04:55:03.141Z,-.76
2023-01-27T04:55:33.383Z,-.76
2023-01-27T04:56:05.383Z,-.76
2023-01-27T04:56:38.101Z,-.76
2023-01-27T04:57:09.378Z,-.90
2023-01-27T04:57:35.367Z,-.90
2023-01-27T04:57:57.396Z,-.90
2023-01-27T04:58:29.414Z,-.90
2023-01-27T04:59:12.675Z,-.90
2023-01-27T04:59:33.408Z,-.90
2023-01-27T05:00:08.095Z,-.90
2023-01-27T05:00:37.461Z,-.90
2023-01-27T05:01:09.732Z,-.90
2023-01-27T05:01:35.891Z,-.90
2023-01-27T05:01:57.616Z,-.90
2023-01-27T05:03:01.705Z,-.90
2023-01-27T05:03:33.092Z,-.90
2023-01-27T05:04:04.931Z,-.90
2023-01-27T05:04:36.936Z,-.90
2023-01-27T05:05:09.317Z,-.90
2023-01-27T05:05:34.943Z,-.90
2023-01-27T05:05:57.409Z,-.90
2023-01-27T05:06:29.580Z,-.90
2023-01-27T05:07:01.818Z,-.90
2023-01-27T05:07:34.163Z,-.90
2023-01-27T05:08:05.371Z,-.90
2023-01-27T05:08:37.401Z,-.90
2023-01-27T05:09:09.523Z,-.90
2023-01-27T05:09:35.627Z,-.90
2023-01-27T05:09:57.449Z,-.90
2023-01-27T05:10:29.685Z,-.90
2023-01-27T05:11:01.427Z,-.90
2023-01-27T05:11:34.320Z,-1.05
2023-01-27T05:12:05.387Z,-1.05
2023-01-27T05:12:38.001Z,-1.05
2023-01-27T05:13:09.409Z,-1.05
2023-01-27T05:13:35.399Z,-1.05
2023-01-27T05:13:57.462Z,-1.05
2023-01-27T05:14:29.436Z,-1.05
2023-01-27T05:15:04.212Z,-1.05
2023-01-27T05:15:34.000Z,-1.05
2023-01-27T05:16:05.698Z,-1.05
2023-01-27T05:16:37.480Z,-1.05
2023-01-27T05:17:09.524Z,-.94
2023-01-27T05:17:35.791Z,-.94
2023-01-27T05:17:57.437Z,-.94
2023-01-27T05:18:29.395Z,-.94
2023-01-27T05:19:01.971Z,-.94
2023-01-27T05:19:33.928Z,-.94
2023-01-27T05:20:07.360Z,-.94
2023-01-27T05:20:37.398Z,-.94
2023-01-27T05:21:09.404Z,-1.09
2023-01-27T05:21:35.403Z,-1.09
2023-01-27T05:21:57.772Z,-1.09
2023-01-27T05:22:29.469Z,-1.09
2023-01-27T05:23:01.386Z,-1.09
2023-01-27T05:23:33.884Z,-1.09
2023-01-27T05:24:05.615Z,-1.09
2023-01-27T05:24:37.451Z,-1.09
2023-01-27T05:25:09.731Z,-1.09
2023-01-27T05:25:35.397Z,-1.09
2023-01-27T05:25:57.707Z,-1.09
2023-01-27T05:26:29.397Z,-1.09
2023-01-27T05:27:01.402Z,-1.09
2023-01-27T05:27:33.894Z,-1.09
2023-01-27T05:28:05.385Z,-1.09
2023-01-27T05:28:38.050Z,-1.09
2023-01-27T05:29:09.395Z,-1.09
2023-01-27T05:29:35.388Z,-1.09
2023-01-27T05:29:57.464Z,-1.09
2023-01-27T05:30:30.031Z,-1.09
2023-01-27T05:31:01.552Z,-1.09
2023-01-27T05:31:33.976Z,-1.09
2023-01-27T05:32:05.427Z,-1.09
2023-01-27T05:32:37.431Z,-1.09
2023-01-27T05:33:09.550Z,-1.09
2023-01-27T05:33:35.384Z,-1.09
2023-01-27T05:33:57.588Z,-1.09
2023-01-27T05:34:29.379Z,-1.09
2023-01-27T05:35:04.080Z,-1.09
2023-01-27T05:35:33.939Z,-1.09
2023-01-27T05:36:05.442Z,-1.23
2023-01-27T05:36:37.387Z,-1.23
2023-01-27T05:37:09.411Z,-1.23
2023-01-27T05:37:35.382Z,-1.23
2023-01-27T05:37:57.419Z,-1.23
2023-01-27T05:38:29.442Z,-1.23
2023-01-27T05:39:01.444Z,-1.23
2023-01-27T05:39:34.003Z,-1.23
2023-01-27T05:40:07.105Z,-1.23
2023-01-27T05:40:37.454Z,-1.23
2023-01-27T05:41:09.409Z,-1.23
2023-01-27T05:41:35.390Z,-1.12
2023-01-27T05:41:57.433Z,-1.12
2023-01-27T05:42:29.432Z,-1.12
2023-01-27T05:43:01.415Z,-1.12
2023-01-27T05:43:33.895Z,-1.12
2023-01-27T05:44:05.434Z,-1.12
2023-01-27T05:44:40.501Z,-1.12
2023-01-27T05:45:09.977Z,-1.12
2023-01-27T05:45:35.398Z,-1.12
2023-01-27T05:45:57.775Z,-1.12
2023-01-27T05:46:29.484Z,-1.12
2023-01-27T05:47:01.467Z,-1.12
2023-01-27T05:47:33.938Z,-1.12
2023-01-27T05:48:05.455Z,-1.12
2023-01-27T05:48:37.411Z,-1.27
2023-01-27T05:49:09.472Z,-1.27
2023-01-27T05:49:35.588Z,-1.27
2023-01-27T05:49:57.436Z,-1.27
2023-01-27T05:50:29.737Z,-1.27
2023-01-27T05:51:02.106Z,-1.27
2023-01-27T05:51:33.868Z,-1.27
2023-01-27T05:52:05.414Z,-1.27
2023-01-27T05:52:37.421Z,-1.27
2023-01-27T05:53:09.696Z,-1.27
2023-01-27T05:53:35.565Z,-1.27
2023-01-27T05:53:57.461Z,-1.27
2023-01-27T05:54:29.442Z,-1.27
2023-01-27T05:55:03.607Z,-1.27
2023-01-27T05:55:34.185Z,-1.27
2023-01-27T05:56:05.501Z,-1.27
2023-01-27T05:56:37.443Z,-1.27
2023-01-27T05:57:09.430Z,-1.27
2023-01-27T05:57:35.395Z,-1.27
2023-01-27T05:57:57.508Z,-1.27
2023-01-27T05:58:29.430Z,-1.27
2023-01-27T05:59:17.407Z,-1.27
2023-01-27T05:59:38.893Z,-1.27
2023-01-27T06:00:07.827Z,-1.27
2023-01-27T06:00:38.569Z,-1.27
2023-01-27T06:01:09.625Z,-1.27
2023-01-27T06:01:35.495Z,-1.27
2023-01-27T06:01:57.570Z,-1.27
2023-01-27T06:02:29.471Z,-1.27
2023-01-27T06:03:01.498Z,-1.27
2023-01-27T06:03:34.236Z,-1.27
2023-01-27T06:04:05.483Z,-1.27
2023-01-27T06:04:37.449Z,-1.27
2023-01-27T06:05:09.785Z,-1.27
2023-01-27T06:05:35.428Z,-1.27
2023-01-27T06:05:58.168Z,-1.27
2023-01-27T06:06:29.487Z,-1.27
2023-01-27T06:07:02.063Z,-1.27
2023-01-27T06:07:34.325Z,-1.27
2023-01-27T06:08:05.445Z,-1.27
2023-01-27T06:08:37.454Z,-1.27
2023-01-27T06:09:09.420Z,-1.12
2023-01-27T06:09:35.397Z,-1.12
2023-01-27T06:09:57.510Z,-1.12
2023-01-27T06:10:29.768Z,-1.12
2023-01-27T06:11:01.496Z,-1.12
2023-01-27T06:11:33.905Z,-1.12
2023-01-27T06:12:05.424Z,-1.12
2023-01-27T06:12:37.470Z,-1.12
2023-01-27T06:13:09.458Z,-1.12
2023-01-27T06:13:38.380Z,-1.12
2023-01-27T06:13:57.761Z,-1.23
2023-01-27T06:14:29.430Z,-1.23
2023-01-27T06:15:04.276Z,-1.23
2023-01-27T06:15:33.931Z,-1.23
2023-01-27T06:16:05.662Z,-1.23
2023-01-27T06:16:37.462Z,-1.23
2023-01-27T06:17:09.654Z,-1.23
2023-01-27T06:17:35.386Z,-1.23
2023-01-27T06:17:57.947Z,-1.23
2023-01-27T06:18:29.457Z,-1.23
2023-01-27T06:19:01.508Z,-1.23
2023-01-27T06:19:33.896Z,-1.23
2023-01-27T06:20:07.415Z,-1.23
2023-01-27T06:20:37.460Z,-1.23
2023-01-27T06:21:09.546Z,-1.23
2023-01-27T06:21:35.376Z,-1.23
2023-01-27T06:21:57.531Z,-1.23
2023-01-27T06:22:29.450Z,-1.23
2023-01-27T06:23:01.491Z,-1.23
2023-01-27T06:23:34.212Z,-1.23
2023-01-27T06:24:05.603Z,-1.23
2023-01-27T06:24:37.456Z,-1.23
2023-01-27T06:25:09.787Z,-1.23
2023-01-27T06:25:35.578Z,-1.23
2023-01-27T06:25:57.748Z,-1.23
2023-01-27T06:26:30.411Z,-1.23
2023-01-27T06:27:01.437Z,-1.23
2023-01-27T06:27:34.250Z,-1.23
2023-01-27T06:28:05.674Z,-1.23
2023-01-27T06:28:37.477Z,-1.23
2023-01-27T06:29:09.458Z,-1.23
2023-01-27T06:29:36.327Z,-1.23
2023-01-27T06:29:57.473Z,-1.23
2023-01-27T06:30:29.973Z,-1.23
2023-01-27T06:31:01.537Z,-1.23
2023-01-27T06:31:33.961Z,-1.23
2023-01-27T06:32:05.495Z,-1.23
2023-01-27T06:32:38.378Z,-1.23
2023-01-27T06:33:09.454Z,-1.23
2023-01-27T06:33:35.492Z,-1.23
2023-01-27T06:33:57.578Z,-1.23